﻿ProjectID	SampleID	SampleType	TaxonomyID	UniqCodeType	UniqCode	SampleName	ScientificName	CommonName	CollectionYear	CollectionMonth	CollectionDay	SamplingTimeStartEnd	SamplingTimeAMPM	SamplingDuration	WeatherStartEnd	CollectionRegion	CollectionCountry	CollectionArea	CollectionLatitudeFrom	CollectionLatitudeTo	CollectionLongitudeFrom	CollectionLongitudeTo	Sex	TissueOrgan	TissueLipid	TissueMoist	Weight	WeightUnit	Length	LengthUnit	LengthType	GrowthStage	Age	Disease	TemperatureStartEnd	WaterTemperatureStartEnd	pH	DO	EC	EC_temp	Salinity	SS	WaterDepthM	TransparencyM	WaterColor	SedimentTemperatureStartEnd	SedimentDepthM	SedimentAppearance	SedimentColor	SedimentSurfaceColor	SedimentOdor	SedimentImpurities	SedimentMoistureOnSiteAnalysis	IgnitionLossOnSiteAnalysis	SoilDepthM	FlowRate	MeanPM10	MeanTotalSuspendedParticles	HumidityStartEnd	WindDirectionStartEnd	WindSpeedMSStartEnd	AmountOfCollectedAirStartEnd	Remarks	RegisterDate	UpdateDate
PRA000015	SAA000492	ST015				BR-1	Water	"Water from creeks or rivers"	2011	1	10					Asia	Vietnam	"Dong Mai"	20.98666667		106.0536111															12	<2.0		370	25																							"Dry season; BR (Battery recycling site)"	2016/11/24	2019/7/17
PRA000015	SAA000493	ST015				BR-2	Water	"Water from creeks or rivers"	2011	1	11					Asia	Vietnam	"Dong Mai"	20.98611111		106.0538889															13	<2.0		370	25																							"Dry season; BR (Battery recycling site)"	2016/11/24	2019/7/17
PRA000015	SAA000494	ST015				BR-3	Water	"Pond water"	2011	1	11					Asia	Vietnam	"Dong Mai"	20.98694444		106.0544444															12	7.1		62	25																							"Dry season; BR (Battery recycling site)"	2016/11/24	2019/7/17
PRA000015	SAA000495	ST015				BR-4	Water	"Water from creeks or rivers"	2011	1	11					Asia	Vietnam	"Dong Mai"	20.98666667		106.0536111															12	7.4		67	25																							"Dry season; BR (Battery recycling site)"	2016/11/24	2019/7/17
PRA000015	SAA000496	ST015				BR-5	Water	"Water from creeks or rivers"	2011	1	11					Asia	Vietnam	"Dong Mai"	20.99666667		106.0569444															12	7.7		40	25																							"Dry season; BR (Battery recycling site)"	2016/11/24	2019/7/17
PRA000015	SAA000497	ST015				BR-6	Water	"Water from creeks or rivers"	2011	1	11					Asia	Vietnam	"Dong Mai"	20.99611111		106.0569444															12	8.5		35	25																							"Dry season; BR (Battery recycling site)"	2016/11/24	2019/7/17
PRA000015	SAA000498	ST015				BR-7	Water	"Water from creeks or rivers"	2011	1	11					Asia	Vietnam	"Dong Mai"	20.99694444		106.0569444															11	7.8		39	25																							"Dry season; BR (Battery recycling site)"	2016/11/24	2019/7/17
PRA000015	SAA000499	ST015				ER-1	Water	"Water from creeks or rivers"	2011	1	13					Asia	Vietnam	"Bui Dau"	20.93333333		106.0947222															16	7.1		87	25																							"Dry season; ER (E-waste recycling site)"	2016/11/24	2019/7/17
PRA000015	SAA000500	ST015				ER-2	Water	"Water from creeks or rivers"	2011	1	13					Asia	Vietnam	"Bui Dau"	20.93305556		106.0952778															17	7		98	25																							"Dry season; ER (E-waste recycling site)"	2016/11/24	2019/7/17
PRA000015	SAA000501	ST015				ER-3	Water	"Pond water"	2011	1	13					Asia	Vietnam	"Bui Dau"	20.93277778		106.095															16	7.4		63	25																							"Dry season; ER (E-waste recycling site)"	2016/11/24	2019/7/17
PRA000015	SAA000502	ST015				ER-4	Water	"Pond water"	2011	1	13					Asia	Vietnam	"Bui Dau"	20.93333333		106.0955556															16	7.4		49	25																							"Dry season; ER (E-waste recycling site)"	2016/11/24	2019/7/17
PRA000015	SAA000503	ST015				ER-5	Water	"Pond water"	2011	1	13					Asia	Vietnam	"Bui Dau"	20.93416667		106.0966667															16	7.6		63	25																							"Dry season; ER (E-waste recycling site)"	2016/11/24	2019/7/17
PRA000015	SAA000504	ST015				ER-6	Water	"Water from creeks or rivers"	2011	1	13					Asia	Vietnam	"Bui Dau"	20.93472222		106.0972222															16	7.4		97	25																							"Dry season; ER (E-waste recycling site)"	2016/11/24	2019/7/17
PRA000015	SAA000505	ST015				ER-7	Water	"Pond water"	2011	1	13					Asia	Vietnam	"Bui Dau"	20.935		106.0975															16	8.2		73	25																							"Dry season; ER (E-waste recycling site)"	2016/11/24	2019/7/17
PRA000015	SAA000506	ST015				ER-8	Water	"Water from creeks or rivers"	2011	1	13					Asia	Vietnam	"Bui Dau"	20.93472222		106.1002778															16	7.2		150	25																							"Dry season; ER (E-waste recycling site)"	2016/11/24	2019/7/17
PRA000015	SAA000507	ST015				ER-9	Water	"Water from creeks or rivers"	2011	1	13					Asia	Vietnam	"Bui Dau"	20.935		106.1002778															16	7		270	25																							"Dry season; ER (E-waste recycling site)"	2016/11/24	2019/7/17
PRA000015	SAA000508	ST015				ER-10	Water	"Water from creeks or rivers"	2011	1	13					Asia	Vietnam	"Bui Dau"	20.93583333		106.1008333															16	7.3		100	25																							"Dry season; ER (E-waste recycling site)"	2016/11/24	2019/7/17
PRA000015	SAA000509	ST015				RU-1	Water	"Pond water"	2011	1	14					Asia	Vietnam	"Duong Quang"	20.93722222		106.1194444															16	7.6		96	25																							"Dry season; RU (Rural control site)"	2016/11/24	2019/7/17
PRA000015	SAA000510	ST015				RU-2	Water	"Pond water"	2011	1	14					Asia	Vietnam	"Duong Quang"	20.93722222		106.1197222															16	7.5		51	25																							"Dry season; RU (Rural control site)"	2016/11/24	2019/7/17
PRA000015	SAA000511	ST015				RU-3	Water	"Pond water"	2011	1	14					Asia	Vietnam	"Duong Quang"	20.93805556		106.1208333															15	6.6		130	25																							"Dry season; RU (Rural control site)"	2016/11/24	2019/7/17
PRA000015	SAA000512	ST015				RU-4	Water	"Pond water"	2011	1	14					Asia	Vietnam	"Duong Quang"	20.93611111		106.1194444															15	7.4		81	25																							"Dry season; RU (Rural control site)"	2016/11/24	2019/7/17
PRA000015	SAA000513	ST015				RU-5	Water	"Water from creeks or rivers"	2011	1	14					Asia	Vietnam	"Duong Quang"	20.93583333		106.1172222															16	7.3		84	25																							"Dry season; RU (Rural control site)"	2016/11/24	2019/7/17
PRA000015	SAA000514	ST015				RU-6	Water	"Water from creeks or rivers"	2011	1	14					Asia	Vietnam	"Duong Quang"	20.93972222		106.1236111															15	7.5		49	25																							"Dry season; RU (Rural control site)"	2016/11/24	2019/7/17
PRA000015	SAA000515	ST015				MW-1	Water	"Water from wastewater canals"	2011	1	15					Asia	Vietnam	"Yen So pump station"	20.95833333		105.8588889															17	8.3		57	25																							"Dry season; MW (Municipal wastewater discharge station)"	2016/11/24	2019/7/17
PRA000015	SAA000516	ST015				MW-2	Water	"Water from wastewater canals"	2011	1	15					Asia	Vietnam	"Yen So pump station"	20.95916667		105.8661111															17	7.6		30	25																							"Dry season; MW (Municipal wastewater discharge station)"	2016/11/24	2019/7/17
PRA000015	SAA000517	ST015				MW-3	Water	"Water from wastewater canals"	2011	1	15					Asia	Vietnam	"Yen So pump station"	20.95861111		105.8680556															17	7.4		33	25																							"Dry season; MW (Municipal wastewater discharge station)"	2016/11/24	2019/7/17
PRA000015	SAA000518	ST015				MW-4	Water	"Water from wastewater canals"	2011	1	15					Asia	Vietnam	"Yen So pump station"	20.95833333		105.8686111															18	7.3		64	25																							"Dry season; MW (Municipal wastewater discharge station)"	2016/11/24	2019/7/17
PRA000015	SAA000519	ST015				MW-5	Water	"Water from wastewater canals"	2011	1	15					Asia	Vietnam	"Yen So pump station"	20.95888889		105.8619444															18	9.2		20	25																							"Dry season; MW (Municipal wastewater discharge station)"	2016/11/24	2019/7/17
PRA000015	SAA000520	ST015				MW-6	Water	"Water from wastewater canals"	2011	1	15					Asia	Vietnam	"Yen So pump station"	20.9575		105.8586111															17	7.6		66	25																							"Dry season; MW (Municipal wastewater discharge station)"	2016/11/24	2019/7/17
PRA000015	SAA000521	ST015				MW-7	Water	"Water from wastewater canals"	2011	1	15					Asia	Vietnam	"Yen So pump station"	20.95861111		105.8661111															17	7.5		33	25																							"Dry season; MW (Municipal wastewater discharge station)"	2016/11/24	2019/7/17
PRA000015	SAA000522	ST015				MW-8	Water	"Water from wastewater canals"	2011	1	15					Asia	Vietnam	"Yen So pump station"	20.9575		105.8691667															17	7.5		66	25																							"Dry season; MW (Municipal wastewater discharge station)"	2016/11/24	2019/7/17
PRA000015	SAA000523	ST015				MD-1	Water	"Leachate and River water"	2011	1	15					Asia	Vietnam	"Lam Son"	21.01777778		105.7533333															18	7.4		38	25																							"Dry season; MD (Municipal dumping site)"	2016/11/24	2019/7/17
PRA000015	SAA000524	ST015				MD-2	Water	"Leachate and River water"	2011	1	15					Asia	Vietnam	"Lam Son"	21.01777778		105.7536111															18	7.5		20	25																							"Dry season; MD (Municipal dumping site)"	2016/11/24	2019/7/17
PRA000015	SAA000525	ST015				MD-3	Water	"Leachate and River water"	2011	1	15					Asia	Vietnam	"Lam Son"	21.01777778		105.7536111															18	7.5		57	25																							"Dry season; MD (Municipal dumping site)"	2016/11/24	2019/7/17
PRA000015	SAA000526	ST015				MD-4	Water	"Leachate and River water"	2011	1	15					Asia	Vietnam	"Lam Son"	21.01555556		105.7555556															18	7.5		22	25																							"Dry season; MD (Municipal dumping site)"	2016/11/24	2019/7/17
PRA000015	SAA000527	ST015				MD-5	Water	"Leachate and River water"	2011	1	15					Asia	Vietnam	"Lam Son"	21.01305556		105.7463889															17	10.5		34	25																							"Dry season; MD (Municipal dumping site)"	2016/11/24	2019/7/17
PRA000015	SAA000528	ST015				MD-6	Water	"Leachate and River water"	2011	1	15					Asia	Vietnam	"Lam Son"	21.01416667		105.7505556															18	6.5		32	25																							"Dry season; MD (Municipal dumping site)"	2016/11/24	2019/7/17
PRA000015	SAA000529	ST015				MD-7	Water	"Leachate and River water"	2011	1	15					Asia	Vietnam	"Lam Son"	21.015		105.7530556															18	7.4		120	25																							"Dry season; MD (Municipal dumping site)"	2016/11/24	2019/7/17
PRA000015	SAA000530	ST015				MD-8	Water	"Leachate and River water"	2011	1	15					Asia	Vietnam	"Lam Son"	21.015		105.7538889															18	6.6		16	25																							"Dry season; MD (Municipal dumping site)"	2016/11/24	2019/7/17
PRA000015	SAA000531	ST015				MD-9	Water	"Leachate and River water"	2011	1	15					Asia	Vietnam	"Lam Son"	21.01527778		105.7552778															18	6.8		16	25																							"Dry season; MD (Municipal dumping site)"	2016/11/24	2019/7/17
PRA000015	SAA000532	ST015				MD-10	Water	"Leachate and River water"	2011	1	15					Asia	Vietnam	"Lam Son"	21.01527778		105.7561111															18	7.4		24	25																							"Dry season; MD (Municipal dumping site)"	2016/11/24	2019/7/17
PRA000035	SAA002042	ST004	34892			"NP2004-1 "	"Neophocaena phocaenoides"	"Finless porpoises "	2004							Asia	China	"Hong Kong"	22.22874593		114.2763185		"Male "	Liver					148	cm	"Body length"	Adult																															"Found stranded in Hong Kong"	2017/6/30	2017/6/30
PRA000035	SAA002043	ST004	34892			"NP2004-2 "	"Neophocaena phocaenoides"	"Finless porpoises "	2004							Asia	China	"Hong Kong"	22.22874593		114.2763185		"Female "	Liver					149	cm	"Body length"	Adult																															"Found stranded in Hong Kong"	2017/6/30	2017/6/30
PRA000035	SAA002044	ST004	34892			"NP2004-3 "	"Neophocaena phocaenoides"	"Finless porpoises "	2004							Asia	China	"Hong Kong"	22.22874593		114.2763185		"Male "	Liver					160	cm	"Body length"	Adult																															"Found stranded in Hong Kong"	2017/6/30	2017/6/30
PRA000035	SAA002045	ST004	34892			"NP2004-4 "	"Neophocaena phocaenoides"	"Finless porpoises "	2004							Asia	China	"Hong Kong"	22.22874593		114.2763185		"Male "	Liver					170	cm	"Body length"	Adult																															"Found stranded in Hong Kong"	2017/6/30	2017/6/30
PRA000035	SAA002046	ST004	34892			"NP2005-1 "	"Neophocaena phocaenoides"	"Finless porpoises "	2005							Asia	China	"Hong Kong"	22.22874593		114.2763185		"Female "	Liver					171	cm	"Body length"	Adult																															"Found stranded in Hong Kong"	2017/6/30	2017/6/30
PRA000035	SAA002047	ST004	34892			"NP2005-2 "	"Neophocaena phocaenoides"	"Finless porpoises "	2005							Asia	China	"Hong Kong"	22.22874593		114.2763185		"Female "	Liver					134	cm	"Body length"	Adult																															"Found stranded in Hong Kong"	2017/6/30	2017/6/30
PRA000035	SAA002048	ST004	34892			"NP2005-3 "	"Neophocaena phocaenoides"	"Finless porpoises "	2005							Asia	China	"Hong Kong"	22.22874593		114.2763185		"Male "	Liver					157	cm	"Body length"	Adult																															"Found stranded in Hong Kong"	2017/6/30	2017/6/30
PRA000035	SAA002049	ST004	34892			"NP2005-4 "	"Neophocaena phocaenoides"	"Finless porpoises "	2005							Asia	China	"Hong Kong"	22.22874593		114.2763185		"Male "	Liver					163	cm	"Body length"	Adult																															"Found stranded in Hong Kong"	2017/6/30	2017/6/30
PRA000035	SAA002050	ST004	34892			"NP2006-1 "	"Neophocaena phocaenoides"	"Finless porpoises "	2006							Asia	China	"Hong Kong"	22.22874593		114.2763185		"Female "	Liver					175	cm	"Body length"	Adult																															"Found stranded in Hong Kong"	2017/6/30	2017/6/30
PRA000035	SAA002051	ST004	34892			"NP2006-2 "	"Neophocaena phocaenoides"	"Finless porpoises "	2006							Asia	China	"Hong Kong"	22.22874593		114.2763185		"Female "	Liver					170	cm	"Body length"	Adult																															"Found stranded in Hong Kong"	2017/6/30	2017/6/30
PRA000035	SAA002052	ST004	34892			"NP2007-1 "	"Neophocaena phocaenoides"	"Finless porpoises "	2007							Asia	China	"Hong Kong"	22.22874593		114.2763185		"Male "	Liver					160	cm	"Body length"	Adult																															"Found stranded in Hong Kong"	2017/6/30	2017/6/30
PRA000035	SAA002053	ST004	34892			"NP2007-2 "	"Neophocaena phocaenoides"	"Finless porpoises "	2007							Asia	China	"Hong Kong"	22.22874593		114.2763185		"Male "	Liver					177	cm	"Body length"	Adult																															"Found stranded in Hong Kong"	2017/6/30	2017/6/30
PRA000035	SAA002054	ST004	34892			"NP2007-3 "	"Neophocaena phocaenoides"	"Finless porpoises "	2007							Asia	China	"Hong Kong"	22.22874593		114.2763185		"Female "	Liver					160	cm	"Body length"	Adult																															"Found stranded in Hong Kong"	2017/6/30	2017/6/30
PRA000035	SAA002055	ST004	34892			"NP2007-4 "	"Neophocaena phocaenoides"	"Finless porpoises "	2007							Asia	China	"Hong Kong"	22.22874593		114.2763185		"Male "	Liver					154	cm	"Body length"	Adult																															"Found stranded in Hong Kong"	2017/6/30	2017/6/30
PRA000035	SAA002056	ST004	34892			"NP2007-5 "	"Neophocaena phocaenoides"	"Finless porpoises "	2007							Asia	China	"Hong Kong"	22.22874593		114.2763185		"Male "	Liver					160	cm	"Body length"	Adult																															"Found stranded in Hong Kong"	2017/6/30	2017/6/30
PRA000035	SAA002057	ST004	34892			"NP2007-6 "	"Neophocaena phocaenoides"	"Finless porpoises "	2007							Asia	China	"Hong Kong"	22.22874593		114.2763185		"Female "	Liver					122	cm	"Body length"	Adult																															"Found stranded in Hong Kong"	2017/6/30	2017/6/30
PRA000035	SAA002058	ST004	34892			"NP2008-1 "	"Neophocaena phocaenoides"	"Finless porpoises "	2008							Asia	China	"Hong Kong"	22.22874593		114.2763185		"Male "	Liver					161	cm	"Body length"	Adult																															"Found stranded in Hong Kong"	2017/6/30	2017/6/30
PRA000035	SAA002059	ST004	34892			"NP2008-2 "	"Neophocaena phocaenoides"	"Finless porpoises "	2008							Asia	China	"Hong Kong"	22.22874593		114.2763185		"Female "	Liver					163	cm	"Body length"	Adult																															"Found stranded in Hong Kong"	2017/6/30	2017/6/30
PRA000035	SAA002060	ST004	34892			"NP2010-1 "	"Neophocaena phocaenoides"	"Finless porpoises "	2010							Asia	China	"Hong Kong"	22.22874593		114.2763185		"Male "	Liver					162	cm	"Body length"	Adult																															"Found stranded in Hong Kong"	2017/6/30	2017/6/30
PRA000035	SAA002061	ST004	34892			"NP2011-1 "	"Neophocaena phocaenoides"	"Finless porpoises "	2011							Asia	China	"Hong Kong"	22.22874593		114.2763185		"Male "	Liver					172	cm	"Body length"	Adult																															"Found stranded in Hong Kong"	2017/6/30	2017/6/30
PRA000035	SAA002062	ST004	34892			"NP2011-2 "	"Neophocaena phocaenoides"	"Finless porpoises "	2011							Asia	China	"Hong Kong"	22.22874593		114.2763185		"Female "	Liver					165	cm	"Body length"	Adult																															"Found stranded in Hong Kong"	2017/6/30	2017/6/30
PRA000035	SAA002063	ST004	34892			"NP2011-3 "	"Neophocaena phocaenoides"	"Finless porpoises "	2011							Asia	China	"Hong Kong"	22.22874593		114.2763185		"Male "	Liver					138	cm	"Body length"	Adult																															"Found stranded in Hong Kong"	2017/6/30	2017/6/30
PRA000035	SAA002064	ST004	34892			"NP2011-4 "	"Neophocaena phocaenoides"	"Finless porpoises "	2011							Asia	China	"Hong Kong"	22.22874593		114.2763185		"Male "	Liver					133	cm	"Body length"	Adult																															"Found stranded in Hong Kong"	2017/6/30	2017/6/30
PRA000035	SAA002065	ST004	34892			"NP2011-5 "	"Neophocaena phocaenoides"	"Finless porpoises "	2011							Asia	China	"Hong Kong"	22.22874593		114.2763185		"Female "	Liver					175	cm	"Body length"	Adult																															"Found stranded in Hong Kong"	2017/6/30	2017/6/30
PRA000035	SAA002066	ST004	34892			"NP2011-6 "	"Neophocaena phocaenoides"	"Finless porpoises "	2011							Asia	China	"Hong Kong"	22.22874593		114.2763185		"Male "	Liver					160	cm	"Body length"	Adult																															"Found stranded in Hong Kong"	2017/6/30	2017/6/30
PRA000035	SAA002067	ST004	34892			"NP2011-7 "	"Neophocaena phocaenoides"	"Finless porpoises "	2011							Asia	China	"Hong Kong"	22.22874593		114.2763185		"Female "	Liver					141	cm	"Body length"	Adult																															"Found stranded in Hong Kong"	2017/6/30	2017/6/30
PRA000035	SAA002068	ST004	34892			"NP2012-1 "	"Neophocaena phocaenoides"	"Finless porpoises "	2012							Asia	China	"Hong Kong"	22.22874593		114.2763185		"Male "	Liver					158	cm	"Body length"	Adult																															"Found stranded in Hong Kong"	2017/6/30	2017/6/30
PRA000035	SAA002069	ST004	34892			"NP2012-2 "	"Neophocaena phocaenoides"	"Finless porpoises "	2012							Asia	China	"Hong Kong"	22.22874593		114.2763185		"Female "	Liver					157	cm	"Body length"	Adult																															"Found stranded in Hong Kong"	2017/6/30	2017/6/30
PRA000035	SAA002070	ST004	34892			"NP2012-3 "	"Neophocaena phocaenoides"	"Finless porpoises "	2012							Asia	China	"Hong Kong"	22.22874593		114.2763185		"Male "	Liver					166	cm	"Body length"	Adult																															"Found stranded in Hong Kong"	2017/6/30	2017/6/30
PRA000035	SAA002071	ST004	34892			"NP2012-4 "	"Neophocaena phocaenoides"	"Finless porpoises "	2012							Asia	China	"Hong Kong"	22.22874593		114.2763185		"Male "	Liver					165	cm	"Body length"	Adult																															"Found stranded in Hong Kong"	2017/6/30	2017/6/30
PRA000035	SAA002072	ST004	34892			"NP2012-5 "	"Neophocaena phocaenoides"	"Finless porpoises "	2012							Asia	China	"Hong Kong"	22.22874593		114.2763185		"Male "	Liver					166	cm	"Body length"	Adult																															"Found stranded in Hong Kong"	2017/6/30	2017/6/30
PRA000035	SAA002073	ST004	34892			"NP2012-6 "	"Neophocaena phocaenoides"	"Finless porpoises "	2012							Asia	China	"Hong Kong"	22.22874593		114.2763185		"Female "	Liver					133	cm	"Body length"	Adult																															"Found stranded in Hong Kong"	2017/6/30	2017/6/30
PRA000035	SAA002074	ST004	34892			"NP2012-7 "	"Neophocaena phocaenoides"	"Finless porpoises "	2012							Asia	China	"Hong Kong"	22.22874593		114.2763185		"Male "	Liver					156	cm	"Body length"	Adult																															"Found stranded in Hong Kong"	2017/6/30	2017/6/30
PRA000035	SAA002075	ST004	34892			"NP2013-1 "	"Neophocaena phocaenoides"	"Finless porpoises "	2013							Asia	China	"Hong Kong"	22.22874593		114.2763185		"Male "	Liver					122	cm	"Body length"	Adult																															"Found stranded in Hong Kong"	2017/6/30	2017/6/30
PRA000035	SAA002076	ST004	34892			"NP2013-2 "	"Neophocaena phocaenoides"	"Finless porpoises "	2013							Asia	China	"Hong Kong"	22.22874593		114.2763185		"Male "	Liver					140	cm	"Body length"	Adult																															"Found stranded in Hong Kong"	2017/6/30	2017/6/30
PRA000035	SAA002077	ST004	34892			"NP2013-3 "	"Neophocaena phocaenoides"	"Finless porpoises "	2013							Asia	China	"Hong Kong"	22.22874593		114.2763185		"Female "	Liver					157	cm	"Body length"	Adult																															"Found stranded in Hong Kong"	2017/6/30	2017/6/30
PRA000035	SAA002078	ST004	34892			"NP2013-4 "	"Neophocaena phocaenoides"	"Finless porpoises "	2013							Asia	China	"Hong Kong"	22.22874593		114.2763185		"Male "	Liver					166	cm	"Body length"	Adult																															"Found stranded in Hong Kong"	2017/6/30	2017/6/30
PRA000035	SAA002079	ST004	34892			"NP2013-5 "	"Neophocaena phocaenoides"	"Finless porpoises "	2013							Asia	China	"Hong Kong"	22.22874593		114.2763185		"Female "	Liver					130	cm	"Body length"	Adult																															"Found stranded in Hong Kong"	2017/6/30	2017/6/30
PRA000035	SAA002080	ST004	34892			"NP2013-6 "	"Neophocaena phocaenoides"	"Finless porpoises "	2013							Asia	China	"Hong Kong"	22.22874593		114.2763185		"Male "	Liver					140	cm	"Body length"	Adult																															"Found stranded in Hong Kong"	2017/6/30	2017/6/30
PRA000035	SAA002081	ST004	34892			"NP2013-7 "	"Neophocaena phocaenoides"	"Finless porpoises "	2013							Asia	China	"Hong Kong"	22.22874593		114.2763185		"Female "	Liver					172	cm	"Body length"	Adult																															"Found stranded in Hong Kong"	2017/6/30	2017/6/30
PRA000035	SAA002082	ST004	34892			"NP2013-8 "	"Neophocaena phocaenoides"	"Finless porpoises "	2013							Asia	China	"Hong Kong"	22.22874593		114.2763185		"Male "	Liver					165	cm	"Body length"	Adult																															"Found stranded in Hong Kong"	2017/6/30	2017/6/30
PRA000035	SAA002083	ST004	34892			"NP2013-9 "	"Neophocaena phocaenoides"	"Finless porpoises "	2013							Asia	China	"Hong Kong"	22.22874593		114.2763185		"Female "	Liver					168	cm	"Body length"	Adult																															"Found stranded in Hong Kong"	2017/6/30	2017/6/30
PRA000035	SAA002084	ST004	34892			"NP2013-10 "	"Neophocaena phocaenoides"	"Finless porpoises "	2013							Asia	China	"Hong Kong"	22.22874593		114.2763185		"Female "	Liver					141	cm	"Body length"	Adult																															"Found stranded in Hong Kong"	2017/6/30	2017/6/30
PRA000035	SAA002085	ST004	34892			"NP2013-11 "	"Neophocaena phocaenoides"	"Finless porpoises "	2013							Asia	China	"Hong Kong"	22.22874593		114.2763185		"Female "	Liver					157	cm	"Body length"	Adult																															"Found stranded in Hong Kong"	2017/6/30	2017/6/30
PRA000035	SAA002086	ST004	34892			"NP2013-12 "	"Neophocaena phocaenoides"	"Finless porpoises "	2013							Asia	China	"Hong Kong"	22.22874593		114.2763185		"Female "	Liver					122	cm	"Body length"	Adult																															"Found stranded in Hong Kong"	2017/6/30	2017/6/30
PRA000035	SAA002087	ST004	34892			"NP2014-1 "	"Neophocaena phocaenoides"	"Finless porpoises "	2014							Asia	China	"Hong Kong"	22.22874593		114.2763185		"Female "	Liver					165	cm	"Body length"	Adult																															"Found stranded in Hong Kong"	2017/6/30	2017/6/30
PRA000035	SAA002088	ST004	34892			"NP2014-2 "	"Neophocaena phocaenoides"	"Finless porpoises "	2014							Asia	China	"Hong Kong"	22.22874593		114.2763185		"Male "	Liver					160	cm	"Body length"	Adult																															"Found stranded in Hong Kong"	2017/6/30	2017/6/30
PRA000035	SAA002089	ST004	34892			"NP2014-3 "	"Neophocaena phocaenoides"	"Finless porpoises "	2014							Asia	China	"Hong Kong"	22.22874593		114.2763185		"Female "	Liver					155	cm	"Body length"	Adult																															"Found stranded in Hong Kong"	2017/6/30	2017/6/30
PRA000035	SAA002090	ST004	34892			"NP2014-4 "	"Neophocaena phocaenoides"	"Finless porpoises "	2014							Asia	China	"Hong Kong"	22.22874593		114.2763185		"Female "	Liver					157	cm	"Body length"	Adult																															"Found stranded in Hong Kong"	2017/6/30	2017/6/30
PRA000035	SAA002091	ST004	34892			"NP2014-5 "	"Neophocaena phocaenoides"	"Finless porpoises "	2014							Asia	China	"Hong Kong"	22.22874593		114.2763185		"Female "	Liver					155	cm	"Body length"	Adult																															"Found stranded in Hong Kong"	2017/6/30	2017/6/30
PRA000035	SAA002092	ST004	103600			"SC2002-1 "	"Sousa chinensis"	"Indo-pacific humpbacked dolphins"	2002							Asia	China	"Hong Kong"	22.28593957		114.1039705		"Male "	Liver					248	cm	"Body length"	Adult																															"Found stranded in Hong Kong"	2017/6/30	2017/6/30
PRA000035	SAA002093	ST004	103600			"SC2004-1 "	"Sousa chinensis"	"Indo-pacific humpbacked dolphins"	2004							Asia	China	"Hong Kong"	22.28593957		114.1039705		"Female "	Liver					249	cm	"Body length"	Adult																															"Found stranded in Hong Kong"	2017/6/30	2017/6/30
PRA000035	SAA002094	ST004	103600			"SC2004-2 "	"Sousa chinensis"	"Indo-pacific humpbacked dolphins"	2004							Asia	China	"Hong Kong"	22.28593957		114.1039705		"Male "	Liver					251	cm	"Body length"	Adult																															"Found stranded in Hong Kong"	2017/6/30	2017/6/30
PRA000035	SAA002095	ST004	103600			"SC2004-3 "	"Sousa chinensis"	"Indo-pacific humpbacked dolphins"	2004							Asia	China	"Hong Kong"	22.28593957		114.1039705		"Male "	Liver					245	cm	"Body length"	Adult																															"Found stranded in Hong Kong"	2017/6/30	2017/6/30
PRA000035	SAA002096	ST004	103600			"SC2005-1 "	"Sousa chinensis"	"Indo-pacific humpbacked dolphins"	2005							Asia	China	"Hong Kong"	22.28593957		114.1039705		"Female "	Liver					230	cm	"Body length"	Adult																															"Found stranded in Hong Kong"	2017/6/30	2017/6/30
PRA000035	SAA002097	ST004	103600			"SC2007-1 "	"Sousa chinensis"	"Indo-pacific humpbacked dolphins"	2007							Asia	China	"Hong Kong"	22.28593957		114.1039705		"Male "	Liver					230	cm	"Body length"	Adult																															"Found stranded in Hong Kong"	2017/6/30	2017/6/30
PRA000035	SAA002098	ST004	103600			"SC2007-2 "	"Sousa chinensis"	"Indo-pacific humpbacked dolphins"	2007							Asia	China	"Hong Kong"	22.28593957		114.1039705			Liver					267	cm	"Body length"	Adult																															"Found stranded in Hong Kong"	2017/6/30	2017/6/30
PRA000035	SAA002099	ST004	103600			"SC2008-1 "	"Sousa chinensis"	"Indo-pacific humpbacked dolphins"	2008							Asia	China	"Hong Kong"	22.28593957		114.1039705		"Female "	Liver					260	cm	"Body length"	Adult																															"Found stranded in Hong Kong"	2017/6/30	2017/6/30
PRA000035	SAA002100	ST004	103600			"SC2012-1 "	"Sousa chinensis"	"Indo-pacific humpbacked dolphins"	2012							Asia	China	"Hong Kong"	22.28593957		114.1039705			Liver					261	cm	"Body length"	Adult																															"Found stranded in Hong Kong"	2017/6/30	2017/6/30
PRA000035	SAA002101	ST004	103600			"SC2012-2 "	"Sousa chinensis"	"Indo-pacific humpbacked dolphins"	2012							Asia	China	"Hong Kong"	22.28593957		114.1039705		"Female "	Liver					222	cm	"Body length"	Adult																															"Found stranded in Hong Kong"	2017/6/30	2017/6/30
PRA000035	SAA002102	ST004	103600			"SC2012-3 "	"Sousa chinensis"	"Indo-pacific humpbacked dolphins"	2012							Asia	China	"Hong Kong"	22.28593957		114.1039705			Liver					260	cm	"Body length"	Adult																															"Found stranded in Hong Kong"	2017/6/30	2017/6/30
PRA000035	SAA002103	ST004	103600			"SC2012-4 "	"Sousa chinensis"	"Indo-pacific humpbacked dolphins"	2012							Asia	China	"Hong Kong"	22.28593957		114.1039705		"Female "	Liver					261	cm	"Body length"	Adult																															"Found stranded in Hong Kong"	2017/6/30	2017/6/30
PRA000035	SAA002104	ST004	103600			"SC2013-1 "	"Sousa chinensis"	"Indo-pacific humpbacked dolphins"	2013							Asia	China	"Hong Kong"	22.28593957		114.1039705		"Female "	Liver					252	cm	"Body length"	Adult																															"Found stranded in Hong Kong"	2017/6/30	2017/6/30
PRA000035	SAA002105	ST004	103600			"SC2013-2 "	"Sousa chinensis"	"Indo-pacific humpbacked dolphins"	2013							Asia	China	"Hong Kong"	22.28593957		114.1039705		"Female "	Liver					236	cm	"Body length"	Adult																															"Found stranded in Hong Kong"	2017/6/30	2017/6/30
PRA000035	SAA002106	ST004	103600			"SC2013-3 "	"Sousa chinensis"	"Indo-pacific humpbacked dolphins"	2013							Asia	China	"Hong Kong"	22.28593957		114.1039705		"Female "	Liver					245	cm	"Body length"	Adult																															"Found stranded in Hong Kong"	2017/6/30	2017/6/30
PRA000035	SAA002107	ST004	103600			"SC2013-4 "	"Sousa chinensis"	"Indo-pacific humpbacked dolphins"	2013							Asia	China	"Hong Kong"	22.28593957		114.1039705		"Female "	Liver					264	cm	"Body length"	Adult																															"Found stranded in Hong Kong"	2017/6/30	2017/6/30
PRA000035	SAA002108	ST004	103600			"SC2014-1 "	"Sousa chinensis"	"Indo-pacific humpbacked dolphins"	2014							Asia	China	"Hong Kong"	22.28593957		114.1039705		"Female "	Liver					270	cm	"Body length"	Adult																															"Found stranded in Hong Kong"	2017/6/30	2017/6/30
PRA000095	SAA005816	ST015				W_1xyz01_20110706	Water	"River water"	2011	7	6					Asia	Japan	"Salmon-bashi, bridge, Chitose-gawa Riv., Chitose city, Hokkaido"	42.836104		141.659342																																										"Upstream from the inflow of STP effluent; Chitose STP; Population served (x1000): 95; Sewage treatment volume (x1000 m<sup>3</sup>/day): 79;  Treat the effluent from 7 industrial parks which have semiconductor facilities"	2019/7/26	2019/7/26
PRA000095	SAA005817	ST015				W_1xyz02_20110706	Water	"River water"	2011	7	6					Asia	Japan	"Neshikoshi-bashi bridge, Chitose-gawa Riv., Chitose city, Hokkaido"	42.845615		141.670595																																										"Downstream from the inflow of STP effluent; Chitose STP; Population served (x1000): 95; Sewage treatment volume (x1000 m<sup>3</sup>/day): 79;  Treat the effluent from 7 industrial parks in Chitose city, which have semiconductor facilities "	2019/7/26	2019/7/26
PRA000095	SAA005818	ST015				W_1xyz03_20110706	Water	"River water"	2011	7	6					Asia	Japan	"Chitosegawa-bashi bridge, Chitose-gawa, Riv., Kitahiroshima city, Hokkaido"	42.997513		141.585598																																										"Downstream of the junction with Izari-gawa Riv. & Shimamatu-gawa Riv."	2019/7/26	2019/7/26
PRA000095	SAA005819	ST015				W_1xyz04_20110706	Water	"River water"	2011	7	6					Asia	Japan	"Dai18gou Izarigawa-bashi bridge Izari-gawa Riv. Eniwa city, Hokkaido"	42.922207		141.608062																																										"Upstream from the inflow of STP effluent: Eniwa STP; Population served (x1000): 77; Sewage treatment volume (x1000 m<sup>3</sup>/day): 66; Treat the effluent from 5 industrial parks in Eniwa city, which have semiconductor facilities"	2019/7/26	2019/7/26
PRA000095	SAA005820	ST015				W_1xyz05_20110706	Water	"River water"	2011	7	6					Asia	Japan	"Dai15gou Izarigawa-bashi bridge, Izari-gawa Riv., Eniwa city, Hokkaido"	42.93626		141.61597																																										"Downstream from the inflow of STP effluent; Eniwa STP; Population served (x1000): 77; Sewage treatment volume (x1000 m<sup>3</sup>/day): 66; Treat the effluent from 5 industrial parks in Eniwa city, which have semiconductor facilities"	2019/7/26	2019/7/26
PRA000095	SAA005821	ST015				W_1xyz06_20110706	Water	"River water"	2011	7	6					Asia	Japan	"Minami 9gou-bashi bridge, Shimamatsu-gawa Riv., Kitahiroshikma city, Hokkaido"	42.977339		141.596207																																										"Downstream from the inflow of STP effluent; Kitahiroshima STP; Population served (x1000): 62; Sewage treatment volume (x1000 m<sup>3</sup>/day): 35; Treat the effluent from industrial park in Eniwa city (Kitahiroshima Wattsu industrial park), which have semiconductor facilities"	2019/7/26	2019/7/26
PRA000095	SAA005822	ST015				W_1xyz07_20110706	Water	"River water"	2011	7	6					Asia	Japan	"Uranosawa-bashi bridge, Uranosawa-gawa Riv., Hokkaido"	43.00808		141.556634																																										"Near Hiroshima daini industrial park"	2019/7/26	2019/7/26
PRA000095	SAA005823	ST015				W_1xyz08_20110830	Water	"River water"	2011	8	30					Asia	Japan	"Kiyomi-bashi bridge, Pankeutashinai-gawa Riv., Kamisunagawa town, Hokkaido"	43.466213		142.022491																																										"Upstream from the inflow of industrial park effluent; Near 3 indsutrial parks located in Kamisunagawa town, which have semiconductor facilities"	2019/7/26	2019/7/26
PRA000095	SAA005824	ST015				W_1xyz09_20110830	Water	"River water"	2011	8	30					Asia	Japan	"Chuo-bashi bridge, Pankeutashinai-gawa Riv., Sunagawa city"	43.491963		141.907377																																										"Upstream of the junction with Ishikari-gawa Riv.; Downstream from the inflow of industrial park effluent;  Near 3 indsutrial parks located in Kamisunagawa town, which have semiconductor facilities"	2019/7/26	2019/7/26
PRA000095	SAA005825	ST015				W_1xyz10_20110915	Water	"River water"	2011	9	15					Asia	Japan	"Near the exit of Kushiro-Shiranuka industrial park, Otanoshikeppu-gawa Riv., Kushiro city, Hokkaido"	43.004251		144.268252																																										"Downstream from the inflow of STP effluent; Kushiro Shiranuka industrial park;"	2019/7/26	2019/7/26
PRA000095	SAA005826	ST015		ZETTAICODE_FY2011_W	112690	W_112690_20111017	Water	"River water"	2011	10	17					Asia	Japan	"Yufutsu-bashi bridge, Abira-gawa Riv., Tomakomai city, Hokkaido"	42.62527778		141.7394444																																										"Near the month of the river; there are inustrial parks in the watershed areas; Eastern part of Tomakomai;"	2019/7/26	2019/7/26
PRA000095	SAA005827	ST015		ZETTAICODE_FY2011_W	113080	W_113080_20111017	Water	"River water"	2011	10	17					Asia	Japan	"Rinko-ohashi bridge, Atsuma-gawa Riv., Atsuma town, Hokkaido"	42.609118		141.828173																																										"Near the month of the river; there are inustrial parks near this sampling point; Eastern part of Tomakomai;"	2019/7/26	2019/7/26
PRA000095	SAA005828	ST015				W_1xyz11_20110830	Water	"River water"	2011	8	30					Asia	Japan	"Miura-ohashi bridge, Ishikari-gawa Riv., Bibai city, Hokkaido and Urausu town, Hokkaido"	43.385635		141.811613																																										"Downstream from the inflow of STP effluent; Naie STP; Population served (x1000): 125; Sewage treatment volume (x1000 m<sup>3</sup>/day): 68;  Treat the waste water from Sorachi industrial park"	2019/7/26	2019/7/26
PRA000095	SAA005829	ST015				W_1xyz12_20110830	Water	"River water"	2011	8	30					Asia	Japan	"Mihara-ohashi bridge, Ishikari-gawa Riv., Ebetsu city, Hokkaido"	43.120052		141.581569																																										"Upstream of the junction with Chitose-gawa Riv."	2019/7/26	2019/7/26
PRA000095	SAA005830	ST015		ZETTAICODE_FY2011_W	110060	W_110060_20110830	Water	"River water"	2011	8	30					Asia	Japan	"Ishikari-ohashi bridge, Ishikari-gawa Riv., Ebetsu city, Hokkaido"	43.12444444		141.5430556																																										"Downstream of the junction with Chitose-gawa Riv.; Downstream from the inflow of paper mill effluent; "	2019/7/26	2019/7/26
PRA000095	SAA005831	ST015				W_1xyz13_20110830	Water	"River water"	2011	8	30					Asia	Japan	"Sapporo-ohashi bridge, Ishikari-gawa Riv., Sapporo city and Tobetsu town, Hokkaido"	43.172798		141.419901																																										"Downstream of the junction with Toyohira-gawa Riv. and Tobetsu-gawa Riv.;"	2019/7/26	2019/7/26
PRA000095	SAA005832	ST015		ZETTAICODE_FY2011_W	113470	W_113470_20110830	Water	"River water"	2011	8	30					Asia	Japan	"Shin Ebetsu-bashi bridge, Chitose-gawa Riv., Ebetsu city, Hokkaido"	43.11583333		141.5583333																																										"Upstream of the junction with Ishikari-gawa Riv.; "	2019/7/26	2019/7/26
PRA000095	SAA005833	ST015				W_1xyz14_20110830	Water	"River water"	2011	8	30					Asia	Japan	"Minamimachi 1chome-bashi bridge, Tonebetsu-gawa Riv., Iwamizawa city, Hokkaido"	43.186916		141.75328																																										"Upstream from the inflow of STP effluent; Nankoen STP; Population served (x1000): 87; Sewage treatment volume (x1000 m<sup>3</sup>/day): 53;"	2019/7/26	2019/7/26
PRA000095	SAA005834	ST015				W_1xyz15_20110830	Water	"River water"	2011	8	30					Asia	Japan	"Yamato-bashi bridge, Tonebetsu-gawa Riv., Iwamizawa city, Hokkaido"	43.183327		141.744358																																										"Downstream from the inflow of STP effluent; Under construction on the sampling day; Nankoen STP; Population served (x1000): 87; Sewage treatment volume (x1000 m<sup>3</sup>/day): 53;"	2019/7/26	2019/7/26
PRA000095	SAA005835	ST015				W_1xyz16_20110830	Water	"River water"	2011	8	30					Asia	Japan	"Kayano-bashi bridge, Ikushunbetsu-gawa Riv., Mikasa city, Hokkaido"	43.232848		141.820815																																										"Downstream from the inflow of STP effluent; Mikasa STP; Population served (x1000): 13; Sewage treatment volume (x1000 m<sup>3</sup>/day): 8;  The effluent is drained into the stream of Kawauchi shuho; There are semiconductor facilities"	2019/7/26	2019/7/26
PRA000095	SAA005836	ST015				W_1xyz17_20100726	Water	"River water"	2010	7	29				Rainy	Asia	Japan	"Kuko-bashi bridge, Inani-gawa Riv., Higashi kagura town, Hokkaido"	43.676466		142.455857																																										"Upstream from the inflow of wastewater from Asahikawa Airport"	2019/7/26	2019/7/26
PRA000095	SAA005837	ST015				W_1xyz18_20100726	Water	"River water"	2010	7	29				Rainy	Asia	Japan	"Inani-gawa Riv., Higashi kagura town, Hokkaido"	43.686454		142.432854																																										"Downstream from the inflow of wastewater from Asahikawa Airport"	2019/7/26	2019/7/26
PRA000095	SAA005838	ST015				W_1xyz19_20100806	Water	"River water"	2010	8	6				Sunny	Asia	Japan	"Kuko-bashi bridge, Inani-gawa Riv., Higashi kagura town, Hokkaido"	43.676466		142.455857																																										"Upstream from the inflow of wastewater from Asahikawa Airport"	2019/7/26	2019/7/26
PRA000095	SAA005839	ST015				W_1xyz20_20100806	Water	"River water"	2010	8	6				Sunny	Asia	Japan	"Inani-gawa Riv., Higashi kagura town, Hokkaido"	43.686454		142.432854																																										"Downstream from the inflow of wastewater from Asahikawa Airport"	2019/7/26	2019/7/26
PRA000095	SAA005840	ST015		ZETTAICODE_FY2010_W	110140	W_110140_20100726	Water	"River water"	2010	7	29				Rainy	Asia	Japan	"Higashi kagura-bashi bridge, Chubetu-gawa Riv., Higashi kagura town, Hokkaido"	43.705		142.4591667																																										"Upstream of the junction with the river where the wastewater from Asahikawa Airport is discharged"	2019/7/26	2019/7/26
PRA000095	SAA005841	ST015				W_1xyz21_20100726	Water	"River water"	2010	7	29				Rainy	Asia	Japan	"Hijirino-ohashi bridge, Chubetsu-gawa Riv., Asahikawa city, Hokkaido"	43.725705		142.414397																																										"Downstream of the junction with the river where the wastewater from Asahikawa Airport is discharged"	2019/7/26	2019/7/26
PRA000095	SAA005842	ST015		ZETTAICODE_FY2010_W	110140	W_110140_20100806	Water	"River water"	2010	8	6				Sunny	Asia	Japan	"Higashi kagura-bashi bridge, Chubetu-gawa Riv., Higashi kagura town, Hokkaido"	43.705		142.4591667																																										"Upstream of the junction with the river where the wastewater from Asahikawa Airport is discharged"	2019/7/26	2019/7/26
PRA000095	SAA005843	ST015				W_1xyz22_20100806	Water	"River water"	2010	8	6				Sunny	Asia	Japan	"Hijirino-ohashi bridge, Chubetsu-gawa Riv., Asahikawa city, Hokkaido"	43.725705		142.414397																																										"Downstream of the junction with the river where the wastewater from Asahikawa Airport is discharged"	2019/7/26	2019/7/26
PRA000095	SAA005844	ST015				W_1xyz23_20110621	Water	"River water"	2011	6	21					Asia	Japan	"Tomappu-gawa Riv., Ozora town, Hokkaido"	43.866013		144.169021																																										"Upstream from the inflow of wastewater from Memambetsu Airport"	2019/7/26	2019/7/26
PRA000095	SAA005845	ST015		ZETTAICODE_FY2011_W	114440	W_114440_20110621	Water	"River water"	2011	6	21					Asia	Japan	"Tomappu-gawa Riv., Ozora town, Hokkaido"	43.89166667		144.1708333																																										"Downstream from the inflow of wastewater from Memambetsu Airport"	2019/7/26	2019/7/26
PRA000095	SAA005846	ST015				W_1xyz24_20100821	Water	"River water"	2010	8	21					Asia	Japan	"Takaya-bashi bridge, Otanoshike-gawa Riv., Hokkaido"	43.062302		144.192783																																										"Around Kushiro Airport"	2019/7/26	2019/7/26
PRA000095	SAA005847	ST015				W_1xyz25_20100821	Water	"River water"	2010	8	21					Asia	Japan	"Aioi-bashi bridge, Otanoshike-gawa Riv., Hokkaido"	43.041624		144.232365																																										"Around Kushiro Airport"	2019/7/26	2019/7/26
PRA000095	SAA005848	ST015				W_1xyz26_20100821	Water	"River water"	2010	8	21					Asia	Japan	"Miyashita-bashi bridge, Koitoi-gawa Riv., Hokkaido"	42.997641		144.15565																																										"Downstream from the inflow of wastewater from Kushiro Airport"	2019/7/26	2019/7/26
PRA000095	SAA005849	ST015		ZETTAICODE_FY2011_W	113680	W_113680_20110702	Water	"River water"	2011	7	2					Asia	Japan	"Matsubibi-bashi bridge, Bibi-gawa Riv., Hokkaido"	42.76583333		141.7191667																																										"Upstream from the inflow of wastewater from Chitose Airport"	2019/7/26	2019/7/26
PRA000095	SAA005850	ST015		ZETTAICODE_FY2011_W	118873	W_118873_20110702	Water	"River water"	2011	7	2					Asia	Japan	"Bibi-bashi bridge Bibi-gawa Riv., Hokkaido"	42.7825		141.7191667																																										"Downstream from the inflow of wastewater from Chitose Airport"	2019/7/26	2019/7/26
